createdAt,value
2018-09-26T00:00:05.896Z,99.900002
2018-09-26T00:05:08.070Z,99.900002
2018-09-26T00:10:10.385Z,99.900002
2018-09-26T00:15:12.746Z,99.900002
2018-09-26T00:20:14.931Z,99.699997
2018-09-26T00:25:17.254Z,99.900002
2018-09-26T00:30:19.620Z,97.900002
2018-09-26T00:35:21.821Z,99.900002
2018-09-26T00:40:24.142Z,99.900002
2018-09-26T00:45:26.648Z,99.900002
2018-09-26T00:50:28.827Z,99.900002
2018-09-26T00:55:31.005Z,99.900002
2018-09-26T01:00:33.348Z,99.900002
2018-09-26T01:05:35.731Z,99.900002
2018-09-26T01:10:37.894Z,99.900002
2018-09-26T01:15:40.174Z,99.900002
2018-09-26T01:20:42.572Z,99.900002
2018-09-26T01:25:44.943Z,99.900002
2018-09-26T01:30:47.099Z,99.900002
2018-09-26T01:35:49.434Z,99.900002
2018-09-26T01:40:51.784Z,99.900002
2018-09-26T01:45:54.032Z,99.900002
2018-09-26T01:50:56.222Z,99.900002
2018-09-26T01:55:58.634Z,99.900002
2018-09-26T02:01:00.968Z,99.900002
2018-09-26T02:06:03.163Z,99.900002
2018-09-26T02:11:05.360Z,99.900002
2018-09-26T02:16:07.799Z,99.900002
2018-09-26T02:21:09.992Z,99.900002
2018-09-26T02:26:12.371Z,99.900002
2018-09-26T02:31:14.699Z,99.900002
2018-09-26T02:36:17.003Z,99.900002
2018-09-26T02:41:19.198Z,99.900002
2018-09-26T02:46:21.600Z,99.900002
2018-09-26T02:51:23.977Z,99.900002
2018-09-26T02:56:26.048Z,99.900002
2018-09-26T03:01:28.317Z,99.900002
2018-09-26T03:06:30.624Z,99.900002
2018-09-26T03:11:32.993Z,99.900002
2018-09-26T03:16:35.269Z,99.900002
2018-09-26T03:21:37.548Z,99.900002
2018-09-26T03:26:39.869Z,99.900002
2018-09-26T03:31:42.133Z,99.900002
2018-09-26T03:36:44.523Z,99.900002
2018-09-26T03:41:46.774Z,99.900002
2018-09-26T03:46:48.965Z,99.900002
2018-09-26T03:51:51.348Z,99.900002
2018-09-26T03:56:53.615Z,99.900002
2018-09-26T04:01:55.910Z,99.900002
2018-09-26T04:06:58.131Z,99.900002
2018-09-26T04:12:00.572Z,99.900002
2018-09-26T04:17:02.821Z,99.900002
2018-09-26T04:22:05.098Z,99.900002
2018-09-26T04:27:07.416Z,99.900002
2018-09-26T04:32:09.870Z,99.900002
2018-09-26T04:37:11.925Z,99.900002
2018-09-26T04:42:14.250Z,99.900002
2018-09-26T04:47:16.560Z,99.900002
2018-09-26T04:52:18.912Z,99.900002
2018-09-26T04:57:21.152Z,99.900002
2018-09-26T05:02:23.361Z,99.900002
2018-09-26T05:07:25.799Z,99.900002
2018-09-26T05:12:28.015Z,99.900002
2018-09-26T05:17:30.306Z,99.900002
2018-09-26T05:22:32.646Z,99.900002
2018-09-26T05:27:35.005Z,99.900002
2018-09-26T05:32:37.178Z,99.900002
2018-09-26T05:37:39.545Z,99.900002
2018-09-26T05:42:41.958Z,99.900002
2018-09-26T05:47:44.107Z,99.900002
2018-09-26T05:52:46.511Z,99.900002
2018-09-26T05:57:48.761Z,99.900002
2018-09-26T06:02:50.998Z,99.900002
2018-09-26T06:07:53.359Z,99.900002
2018-09-26T06:12:55.540Z,99.900002
2018-09-26T06:17:57.807Z,99.900002
2018-09-26T06:23:00.100Z,99.900002
2018-09-26T06:28:02.378Z,99.900002
2018-09-26T06:33:04.790Z,99.900002
2018-09-26T06:38:07.175Z,99.900002
2018-09-26T06:43:09.295Z,99.900002
2018-09-26T06:48:11.664Z,99.900002
2018-09-26T06:53:13.914Z,99.900002
2018-09-26T06:58:16.188Z,99.900002
2018-09-26T07:03:18.469Z,99.900002
2018-09-26T07:08:20.920Z,99.900002
2018-09-26T07:13:22.972Z,99.900002
2018-09-26T07:18:25.378Z,99.900002
2018-09-26T07:23:27.635Z,99.900002
2018-09-26T07:28:30.043Z,97.199997
2018-09-26T07:33:32.233Z,96.400002
2018-09-26T07:38:34.792Z,95.199997
2018-09-26T07:43:36.867Z,94.800003
2018-09-26T07:48:39.169Z,94.800003
2018-09-26T07:53:41.397Z,94.699997
2018-09-26T07:58:43.790Z,93.900002
2018-09-26T08:03:46.034Z,88.300003
2018-09-26T08:08:48.328Z,87.699997
2018-09-26T08:13:50.613Z,86.199997
2018-09-26T08:18:52.989Z,88
2018-09-26T08:23:55.313Z,85.099998
2018-09-26T08:28:57.596Z,79.699997
2018-09-26T08:33:59.994Z,78.199997
2018-09-26T08:39:02.192Z,76.5
2018-09-26T08:44:04.669Z,72.300003
2018-09-26T08:49:06.741Z,71.599998
2018-09-26T08:54:08.924Z,71.800003
2018-09-26T08:59:11.347Z,68.900002
2018-09-26T09:04:13.571Z,68
2018-09-26T09:09:15.836Z,66.5
2018-09-26T09:14:18.266Z,60.799999
2018-09-26T09:19:20.407Z,61.299999
2018-09-26T09:24:22.732Z,61.200001
2018-09-26T09:29:25.049Z,60.400002
2018-09-26T09:34:27.351Z,56.799999
2018-09-26T09:39:29.602Z,57.099998
2018-09-26T09:44:32.010Z,55.200001
2018-09-26T09:49:34.244Z,54.400002
2018-09-26T09:54:36.533Z,52.700001
2018-09-26T09:59:38.788Z,51.5
2018-09-26T10:04:41.120Z,51.900002
2018-09-26T10:09:43.470Z,50.900002
2018-09-26T10:14:45.702Z,46.799999
2018-09-26T10:19:47.976Z,48.099998
2018-09-26T10:24:50.221Z,48.400002
2018-09-26T10:29:52.587Z,48.900002
2018-09-26T10:34:54.870Z,48.099998
2018-09-26T10:39:57.180Z,46.799999
2018-09-26T10:44:59.440Z,46.099998
2018-09-26T10:50:01.706Z,45.599998
2018-09-26T10:55:04.052Z,42
2018-09-26T11:00:06.279Z,45.799999
2018-09-26T11:05:08.689Z,42.799999
2018-09-26T11:10:10.978Z,42.599998
2018-09-26T11:15:13.211Z,42.5
2018-09-26T11:20:15.720Z,40
2018-09-26T11:25:17.733Z,37.299999
2018-09-26T11:30:20.136Z,37.700001
2018-09-26T11:35:22.548Z,33.400002
2018-09-26T11:40:24.756Z,34.700001
2018-09-26T11:45:27.035Z,31.200001
2018-09-26T11:50:29.307Z,32.700001
2018-09-26T11:55:31.554Z,30.200001
2018-09-26T12:00:33.880Z,32.700001
2018-09-26T12:05:36.126Z,29.6
2018-09-26T12:10:38.419Z,29.4
2018-09-26T12:15:40.709Z,31.4
2018-09-26T12:20:43.111Z,28.299999
2018-09-26T12:25:45.353Z,28.700001
2018-09-26T12:30:47.641Z,29.1
2018-09-26T12:35:50.006Z,27.799999
2018-09-26T12:40:52.230Z,34.200001
2018-09-26T12:45:54.420Z,31.5
2018-09-26T12:50:56.818Z,28.5
2018-09-26T12:55:59.117Z,33.099998
2018-09-26T13:01:01.354Z,29.4
2018-09-26T13:06:03.763Z,26.700001
2018-09-26T13:11:05.942Z,28.700001
2018-09-26T13:16:08.366Z,25.700001
2018-09-26T13:21:10.517Z,25.799999
2018-09-26T13:26:12.851Z,30.200001
2018-09-26T13:31:15.267Z,29
2018-09-26T13:36:17.386Z,27.5
2018-09-26T13:41:19.719Z,26.799999
2018-09-26T13:46:22.206Z,26.5
2018-09-26T13:51:24.258Z,29.1
2018-09-26T13:56:26.623Z,22.9
2018-09-26T14:01:29.010Z,24
2018-09-26T14:06:31.217Z,24.799999
2018-09-26T14:11:33.551Z,24.299999
2018-09-26T14:16:35.856Z,22.5
2018-09-26T14:21:37.979Z,27.700001
2018-09-26T14:26:40.354Z,27
2018-09-26T14:31:42.669Z,29.5
2018-09-26T14:36:45.288Z,27.5
2018-09-26T14:41:47.276Z,29
2018-09-26T14:46:49.606Z,28
2018-09-26T14:51:51.968Z,29.9
2018-09-26T14:56:54.259Z,29
2018-09-26T15:01:56.399Z,30.6
2018-09-26T15:06:58.673Z,29.4
2018-09-26T15:12:01.081Z,30.1
2018-09-26T15:17:03.359Z,29
2018-09-26T15:22:05.614Z,31
2018-09-26T15:27:07.877Z,30.200001
2018-09-26T15:32:10.218Z,28.5
2018-09-26T15:37:12.489Z,29.799999
2018-09-26T15:42:14.813Z,27.700001
2018-09-26T15:52:19.548Z,27.5
2018-09-26T15:57:21.726Z,27.5
2018-09-26T16:02:24.003Z,26.700001
2018-09-26T16:07:26.530Z,28
2018-09-26T16:12:28.536Z,28.1
2018-09-26T16:17:30.803Z,29.9
2018-09-26T16:22:33.130Z,28.9
2018-09-26T16:27:35.522Z,28.4
2018-09-26T16:32:37.769Z,31.5
2018-09-26T16:37:40.151Z,36.200001
2018-09-26T16:42:42.500Z,35.099998
2018-09-26T16:47:44.726Z,35.599998
2018-09-26T16:52:46.921Z,38.5
2018-09-26T16:57:49.217Z,45.5
2018-09-26T17:02:51.583Z,49.900002
2018-09-26T17:07:53.822Z,51.900002
2018-09-26T17:12:56.056Z,57
2018-09-26T17:17:58.506Z,57
2018-09-26T17:23:00.741Z,59.700001
2018-09-26T17:28:03.338Z,62.700001
2018-09-26T17:33:05.282Z,66.099998
2018-09-26T17:38:07.538Z,65.900002
2018-09-26T17:43:09.817Z,67.5
2018-09-26T17:48:12.296Z,68.300003
2018-09-26T17:53:14.415Z,68.800003
2018-09-26T17:58:16.833Z,70.900002
2018-09-26T18:03:19.031Z,73.199997
2018-09-26T18:08:21.382Z,76
2018-09-26T18:13:23.588Z,74.599998
2018-09-26T18:18:25.938Z,76.599998
2018-09-26T18:23:28.299Z,75.199997
2018-09-26T18:28:30.677Z,78
2018-09-26T18:33:32.843Z,77.800003
2018-09-26T18:38:35.082Z,80
2018-09-26T18:43:37.435Z,82.400002
2018-09-26T18:48:39.719Z,83.099998
2018-09-26T18:53:42.104Z,81.199997
2018-09-26T18:58:44.300Z,83.199997
2018-09-26T19:03:46.507Z,82
2018-09-26T19:08:49.016Z,85.099998
2018-09-26T19:13:51.137Z,82.400002
2018-09-26T19:18:53.481Z,86.199997
2018-09-26T19:23:55.796Z,87.400002
2018-09-26T19:28:57.996Z,83.5
2018-09-26T19:34:00.333Z,88.199997
2018-09-26T19:39:02.763Z,87.599998
2018-09-26T19:44:04.914Z,86.400002
2018-09-26T19:49:07.172Z,87.300003
2018-09-26T19:54:09.558Z,87.300003
2018-09-26T19:59:11.836Z,87.5
2018-09-26T20:04:14.106Z,87.400002
2018-09-26T20:09:16.419Z,89.800003
2018-09-26T20:14:18.665Z,89.699997
2018-09-26T20:19:20.991Z,88.5
2018-09-26T20:24:23.226Z,89.099998
2018-09-26T20:29:25.802Z,90.099998
2018-09-26T20:34:27.817Z,90.099998
2018-09-26T20:39:30.155Z,91.199997
2018-09-26T20:44:32.879Z,91.5
2018-09-26T20:49:34.758Z,90.5
2018-09-26T20:54:37.081Z,92.199997
2018-09-26T20:59:39.330Z,93.099998
2018-09-26T21:04:41.665Z,94.5
2018-09-26T21:09:43.823Z,95.400002
2018-09-26T21:14:46.279Z,96.800003
2018-09-26T21:19:48.581Z,96.099998
2018-09-26T21:24:50.972Z,97.199997
2018-09-26T21:29:53.122Z,98.099998
2018-09-26T21:34:55.423Z,96.900002
2018-09-26T21:39:57.619Z,96.300003
2018-09-26T21:45:00.048Z,96
2018-09-26T21:50:02.632Z,95.199997
2018-09-26T21:55:04.621Z,96.699997
2018-09-26T22:00:07.000Z,95.5
2018-09-26T22:05:09.117Z,97
2018-09-26T22:10:11.395Z,98.300003
2018-09-26T22:15:13.653Z,96.900002
2018-09-26T22:20:15.961Z,96.699997
2018-09-26T22:25:18.237Z,94.900002
2018-09-26T22:30:20.664Z,96.800003
2018-09-26T22:35:22.901Z,97.400002
2018-09-26T22:45:27.498Z,99.5
2018-09-26T22:50:29.803Z,97.099998
2018-09-26T22:55:32.063Z,96
2018-09-26T23:00:34.283Z,99
2018-09-26T23:05:36.644Z,99.900002
2018-09-26T23:10:39.671Z,99.099998
2018-09-26T23:15:41.382Z,98
2018-09-26T23:20:43.562Z,99.699997
2018-09-26T23:25:45.909Z,99.800003
2018-09-26T23:30:48.127Z,99.400002
2018-09-26T23:35:50.466Z,99.900002
2018-09-26T23:40:52.746Z,99.900002
2018-09-26T23:45:54.982Z,99.900002
2018-09-26T23:50:57.299Z,99.900002
2018-09-26T23:55:59.665Z,98.099998
